Time,TemperatureF,DewpointF,PressureIn,WindDirection,WindDirectionDegrees,WindSpeedMPH,WindSpeedGustMPH,Humidity,HourlyPrecipIn,Conditions,Clouds,dailyrainin,SoftwareType,DateUTC
2013-01-25 00:00:00,1.9,-2.1,30.08,NW,319,6.0,15.0,83,0.00,CLR,,0.00,WeatherDisplay:10.37,2013-01-25 05:00:00,
2013-01-25 00:10:00,1.9,-2.1,30.08,NNW,330,9.0,20.0,83,0.00,CLR,,0.00,WeatherDisplay:10.37,2013-01-25 05:10:00,
2013-01-25 00:15:00,2.0,-2.0,30.08,NW,321,7.0,18.0,83,0.00,CLR,,0.00,WeatherDisplay:10.37,2013-01-25 05:15:00,
2013-01-25 00:25:00,2.0,-1.9,30.08,NNW,347,7.0,19.0,83,0.00,CLR,,0.00,WeatherDisplay:10.37,2013-01-25 05:25:00,
2013-01-25 00:30:00,2.0,-2.0,30.08,NNW,342,6.0,16.0,83,0.00,CLR,,0.00,WeatherDisplay:10.37,2013-01-25 05:30:00,
2013-01-25 00:35:00,1.9,-2.1,30.08,NNW,329,9.0,20.0,83,0.00,CLR,,0.00,WeatherDisplay:10.37,2013-01-25 05:35:00,
2013-01-25 00:40:00,1.9,-1.8,30.08,NNW,332,10.0,21.0,84,0.00,CLR,,0.00,WeatherDisplay:10.37,2013-01-25 05:40:00,
2013-01-25 00:45:00,2.0,-2.0,30.08,NNW,347,7.0,20.0,83,0.00,CLR,,0.00,WeatherDisplay:10.37,2013-01-25 05:45:00,
2013-01-25 00:55:00,2.1,-1.6,30.09,North,350,9.0,19.0,84,0.00,CLR,,0.00,WeatherDisplay:10.37,2013-01-25 05:55:00,
2013-01-25 01:00:00,2.1,-1.9,30.09,NNW,339,12.0,23.0,83,0.00,CLR,,0.00,WeatherDisplay:10.37,2013-01-25 06:00:00,
2013-01-25 01:10:00,2.1,-1.9,30.09,NNW,345,10.0,20.0,83,0.00,CLR,,0.00,WeatherDisplay:10.37,2013-01-25 06:10:00,
2013-01-25 01:15:00,2.0,-1.7,30.09,NNW,344,8.0,21.0,84,0.00,CLR,,0.00,WeatherDisplay:10.37,2013-01-25 06:15:00,
2013-01-25 01:25:00,1.9,-1.8,30.08,North,351,15.0,26.0,84,0.00,CLR,,0.00,WeatherDisplay:10.37,2013-01-25 06:25:00,
2013-01-25 01:35:00,1.8,-1.9,30.09,NNW,343,9.0,22.0,84,0.00,CLR,,0.00,WeatherDisplay:10.37,2013-01-25 06:35:00,
2013-01-25 01:45:00,1.7,-2.0,30.11,North,353,13.0,24.0,84,0.00,CLR,,0.00,WeatherDisplay:10.37,2013-01-25 06:45:00,
2013-01-25 01:55:00,1.6,-1.9,30.09,North,360,12.0,22.0,85,0.00,CLR,,0.00,WeatherDisplay:10.37,2013-01-25 06:55:00,
2013-01-25 02:00:00,1.4,-2.0,30.08,North,357,13.0,25.0,85,0.00,CLR,,0.00,WeatherDisplay:10.37,2013-01-25 07:00:00,
2013-01-25 02:10:00,1.5,-2.0,30.08,North,356,12.0,29.0,85,0.00,CLR,,0.00,WeatherDisplay:10.37,2013-01-25 07:10:00,
2013-01-25 02:15:00,1.4,-2.0,30.09,North,358,12.0,24.0,85,0.00,CLR,,0.00,WeatherDisplay:10.37,2013-01-25 07:15:00,
2013-01-25 02:25:00,1.6,-1.9,30.09,North,351,14.0,26.0,85,0.00,CLR,,0.00,WeatherDisplay:10.37,2013-01-25 07:25:00,
2013-01-25 02:30:00,1.7,-1.8,30.11,North,349,9.0,19.0,85,0.00,CLR,,0.00,WeatherDisplay:10.37,2013-01-25 07:30:00,
2013-01-25 02:40:00,1.7,-1.6,30.10,NNW,346,10.0,24.0,86,0.00,CLR,,0.00,WeatherDisplay:10.37,2013-01-25 07:40:00,
2013-01-25 02:45:00,1.7,-1.6,30.11,NNW,348,9.0,28.0,86,0.00,CLR,,0.00,WeatherDisplay:10.37,2013-01-25 07:45:00,
2013-01-25 02:55:00,1.8,-1.7,30.12,NNW,342,7.0,18.0,85,0.00,CLR,,0.00,WeatherDisplay:10.37,2013-01-25 07:55:00,
2013-01-25 03:00:00,1.8,-1.7,30.12,NNW,344,10.0,19.0,85,0.00,CLR,,0.00,WeatherDisplay:10.37,2013-01-25 08:00:00,
2013-01-25 03:10:00,1.7,-1.7,30.12,North,357,7.0,15.0,85,0.00,CLR,,0.00,WeatherDisplay:10.37,2013-01-25 08:10:00,
2013-01-25 03:15:00,1.6,-1.9,30.12,North,6,7.0,14.0,85,0.00,CLR,,0.00,WeatherDisplay:10.37,2013-01-25 08:15:00,
2013-01-25 03:25:00,1.6,-1.8,30.12,NNE,14,5.0,17.0,85,0.00,CLR,,0.00,WeatherDisplay:10.37,2013-01-25 08:25:00,
2013-01-25 03:30:00,1.8,-1.7,30.12,North,7,10.0,16.0,85,0.00,CLR,,0.00,WeatherDisplay:10.37,2013-01-25 08:30:00,
2013-01-25 03:40:00,1.8,-1.4,30.12,North,11,3.0,13.0,86,0.00,CLR,,0.00,WeatherDisplay:10.37,2013-01-25 08:40:00,
2013-01-25 03:45:00,1.8,-1.4,30.12,NNE,26,5.0,15.0,86,0.00,CLR,,0.00,WeatherDisplay:10.37,2013-01-25 08:45:00,
2013-01-25 03:50:00,1.7,-1.5,30.11,North,8,2.0,16.0,86,0.00,CLR,,0.00,WeatherDisplay:10.37,2013-01-25 08:50:00,
2013-01-25 04:00:00,1.7,-1.5,30.11,North,9,7.0,14.0,86,0.00,CLR,,0.00,WeatherDisplay:10.37,2013-01-25 09:00:00,
2013-01-25 04:10:00,1.6,-1.6,30.12,NNW,343,2.0,21.0,86,0.00,CLR,,0.00,WeatherDisplay:10.37,2013-01-25 09:10:00,
2013-01-25 04:15:00,1.6,-1.4,30.11,NNW,342,6.0,14.0,87,0.00,CLR,,0.00,WeatherDisplay:10.37,2013-01-25 09:15:00,
2013-01-25 04:25:00,1.7,-1.3,30.11,NNW,343,6.0,16.0,87,0.00,CLR,,0.00,WeatherDisplay:10.37,2013-01-25 09:25:00,
2013-01-25 04:30:00,1.8,-1.2,30.11,NNW,345,9.0,18.0,87,0.00,CLR,,0.00,WeatherDisplay:10.37,2013-01-25 09:30:00,
2013-01-25 04:40:00,1.9,-1.1,30.11,NNW,336,7.0,17.0,87,0.00,CLR,,0.00,WeatherDisplay:10.37,2013-01-25 09:40:00,
2013-01-25 04:45:00,1.9,-1.0,30.11,NNW,341,9.0,17.0,87,0.00,CLR,,0.00,WeatherDisplay:10.37,2013-01-25 09:45:00,
2013-01-25 04:55:00,1.8,-1.1,30.11,NNW,333,6.0,13.0,87,0.00,CLR,,0.00,WeatherDisplay:10.37,2013-01-25 09:55:00,
2013-01-25 05:00:00,1.6,-1.3,30.11,NW,321,3.0,9.0,87,0.00,CLR,,0.00,WeatherDisplay:10.37,2013-01-25 10:00:00,
2013-01-25 05:10:00,1.3,-1.5,30.12,NW,313,6.0,10.0,88,0.00,CLR,,0.00,WeatherDisplay:10.37,2013-01-25 10:10:00,
2013-01-25 05:15:00,1.2,-1.5,30.12,NNW,336,5.0,15.0,88,0.00,CLR,,0.00,WeatherDisplay:10.37,2013-01-25 10:15:00,
2013-01-25 05:25:00,1.3,-1.5,30.12,NNW,336,2.0,14.0,88,0.00,CLR,,0.00,WeatherDisplay:10.37,2013-01-25 10:25:00,
2013-01-25 05:30:00,1.3,-1.4,30.12,NNW,332,3.0,14.0,88,0.00,CLR,,0.00,WeatherDisplay:10.37,2013-01-25 10:30:00,
2013-01-25 05:40:00,1.3,-1.4,30.11,NW,320,1.0,15.0,88,0.00,CLR,,0.00,WeatherDisplay:10.37,2013-01-25 10:40:00,
2013-01-25 05:45:00,1.3,-1.4,30.11,WNW,288,0.0,15.0,88,0.00,CLR,,0.00,WeatherDisplay:10.37,2013-01-25 10:45:00,
2013-01-25 05:55:00,1.3,-1.4,30.11,NNW,331,3.0,10.0,88,0.00,CLR,,0.00,WeatherDisplay:10.37,2013-01-25 10:55:00,
2013-01-25 06:00:00,1.4,-1.4,30.11,NW,325,0.0,13.0,88,0.00,CLR,,0.00,WeatherDisplay:10.37,2013-01-25 11:00:00,
2013-01-25 06:10:00,1.6,-1.1,30.11,NW,312,1.0,11.0,88,0.00,CLR,,0.00,WeatherDisplay:10.37,2013-01-25 11:10:00,
2013-01-25 06:15:00,1.8,-1.0,30.11,NW,324,3.0,12.0,88,0.00,CLR,,0.00,WeatherDisplay:10.37,2013-01-25 11:15:00,
2013-01-25 06:25:00,2.0,-0.8,30.11,NW,321,0.0,7.0,88,0.00,CLR,,0.00,WeatherDisplay:10.37,2013-01-25 11:25:00,
2013-01-25 06:30:00,1.9,-0.8,30.11,NNW,334,2.0,11.0,88,0.00,CLR,,0.00,WeatherDisplay:10.37,2013-01-25 11:30:00,
2013-01-25 06:40:00,1.8,-0.9,30.11,NW,314,6.0,13.0,88,0.00,CLR,,0.00,WeatherDisplay:10.37,2013-01-25 11:40:00,
2013-01-25 06:45:00,1.8,-0.9,30.11,NW,325,3.0,13.0,88,0.00,CLR,,0.00,WeatherDisplay:10.37,2013-01-25 11:45:00,
2013-01-25 06:55:00,1.9,-0.9,30.11,North,351,0.0,12.0,88,0.00,CLR,,0.00,WeatherDisplay:10.37,2013-01-25 11:55:00,
2013-01-25 07:00:00,1.9,-0.9,30.11,NNW,344,2.0,10.0,88,0.00,CLR,,0.00,WeatherDisplay:10.37,2013-01-25 12:00:00,
2013-01-25 07:10:00,1.9,-0.9,30.12,NNW,336,1.0,8.0,88,0.00,CLR,,0.00,WeatherDisplay:10.37,2013-01-25 12:10:00,
2013-01-25 07:15:00,1.9,-0.8,30.12,NNW,330,3.0,11.0,88,0.00,CLR,,0.00,WeatherDisplay:10.37,2013-01-25 12:15:00,
2013-01-25 07:25:00,2.1,-0.6,30.12,WNW,299,6.0,11.0,88,0.00,CLR,,0.00,WeatherDisplay:10.37,2013-01-25 12:25:00,
2013-01-25 07:30:00,2.3,-0.7,30.13,NW,322,7.0,15.0,87,0.00,CLR,,0.00,WeatherDisplay:10.37,2013-01-25 12:30:00,
2013-01-25 07:40:00,2.5,-0.5,30.13,NNW,332,3.0,12.0,87,0.00,CLR,,0.00,WeatherDisplay:10.37,2013-01-25 12:40:00,
2013-01-25 07:45:00,2.5,-0.4,30.12,NNW,339,6.0,13.0,87,0.00,CLR,,0.00,WeatherDisplay:10.37,2013-01-25 12:45:00,
2013-01-25 07:55:00,2.8,-0.5,30.13,NNW,339,1.0,14.0,86,0.00,CLR,,0.00,WeatherDisplay:10.37,2013-01-25 12:55:00,
2013-01-25 08:00:00,3.0,-0.3,30.13,NNW,335,2.0,6.0,86,0.00,CLR,,0.00,WeatherDisplay:10.37,2013-01-25 13:00:00,
2013-01-25 08:10:00,3.2,0.0,30.14,NNW,330,7.0,12.0,86,0.00,CLR,,0.00,WeatherDisplay:10.37,2013-01-25 13:10:00,
2013-01-25 08:15:00,3.4,0.2,30.14,NNW,331,0.0,10.0,86,0.00,CLR,,0.00,WeatherDisplay:10.37,2013-01-25 13:15:00,
2013-01-25 08:25:00,3.9,0.4,30.14,North,3,2.0,12.0,85,0.00,CLR,,0.00,WeatherDisplay:10.37,2013-01-25 13:25:00,
2013-01-25 08:30:00,4.1,0.8,30.14,North,2,6.0,13.0,86,0.00,CLR,,0.00,WeatherDisplay:10.37,2013-01-25 13:30:00,
2013-01-25 08:40:00,4.3,0.6,30.13,NNW,348,6.0,13.0,84,0.00,CLR,,0.00,WeatherDisplay:10.37,2013-01-25 13:40:00,
2013-01-25 08:45:00,4.5,0.7,30.13,North,352,6.0,14.0,84,0.00,CLR,,0.00,WeatherDisplay:10.37,2013-01-25 13:45:00,
2013-01-25 08:55:00,4.8,1.0,30.13,North,349,8.0,13.0,84,0.00,CLR,,0.00,WeatherDisplay:10.37,2013-01-25 13:55:00,
2013-01-25 09:00:00,4.9,1.1,30.14,North,351,7.0,13.0,84,0.00,CLR,,0.00,WeatherDisplay:10.37,2013-01-25 14:00:00,
2013-01-25 09:10:00,5.0,0.9,30.14,NNW,347,6.0,12.0,83,0.00,CLR,,0.00,WeatherDisplay:10.37,2013-01-25 14:10:00,
2013-01-25 09:15:00,4.9,0.9,30.14,North,350,8.0,13.0,83,0.00,CLR,,0.00,WeatherDisplay:10.37,2013-01-25 14:15:00,
2013-01-25 09:25:00,5.1,1.1,30.14,NNW,342,8.0,18.0,83,0.00,CLR,,0.00,WeatherDisplay:10.37,2013-01-25 14:25:00,
2013-01-25 09:30:00,5.4,1.4,30.15,NNW,341,5.0,13.0,83,0.00,CLR,,0.00,WeatherDisplay:10.37,2013-01-25 14:30:00,
2013-01-25 09:40:00,5.7,1.7,30.15,North,352,7.0,15.0,83,0.00,CLR,,0.00,WeatherDisplay:10.37,2013-01-25 14:40:00,
2013-01-25 09:45:00,5.9,1.8,30.15,NNW,348,3.0,14.0,83,0.00,CLR,,0.00,WeatherDisplay:10.37,2013-01-25 14:45:00,
2013-01-25 09:55:00,6.2,2.1,30.14,North,350,10.0,18.0,83,0.00,CLR,,0.00,WeatherDisplay:10.37,2013-01-25 14:55:00,
2013-01-25 10:00:00,6.0,1.7,30.14,NNW,348,9.0,18.0,82,0.00,CLR,,0.00,WeatherDisplay:10.37,2013-01-25 15:00:00,
2013-01-25 10:10:00,5.9,1.6,30.14,North,349,10.0,20.0,82,0.00,CLR,,0.00,WeatherDisplay:10.37,2013-01-25 15:10:00,
2013-01-25 10:15:00,6.0,2.0,30.14,NNW,346,8.0,20.0,83,0.00,CLR,,0.00,WeatherDisplay:10.37,2013-01-25 15:15:00,
2013-01-25 10:25:00,6.6,2.0,30.14,North,356,7.0,18.0,81,0.00,CLR,,0.00,WeatherDisplay:10.37,2013-01-25 15:25:00,
2013-01-25 10:30:00,6.7,2.3,30.14,North,355,10.0,23.0,82,0.00,CLR,,0.00,WeatherDisplay:10.37,2013-01-25 15:30:00,
2013-01-25 10:40:00,7.1,2.7,30.13,NNW,336,10.0,17.0,82,0.00,CLR,,0.00,WeatherDisplay:10.37,2013-01-25 15:40:00,
2013-01-25 10:45:00,7.1,2.5,30.13,NNW,343,10.0,19.0,81,0.00,CLR,,0.00,WeatherDisplay:10.37,2013-01-25 15:45:00,
2013-01-25 10:55:00,7.4,3.0,30.13,North,349,7.0,18.0,82,0.00,CLR,,0.00,WeatherDisplay:10.37,2013-01-25 15:55:00,
2013-01-25 11:00:00,7.7,3.1,30.12,North,350,9.0,17.0,81,0.00,CLR,,0.00,WeatherDisplay:10.37,2013-01-25 16:00:00,
2013-01-25 11:10:00,8.1,3.5,30.12,NNW,344,6.0,15.0,81,0.00,CLR,,0.00,WeatherDisplay:10.37,2013-01-25 16:10:00,
2013-01-25 11:15:00,8.4,3.5,30.12,North,349,5.0,12.0,80,0.00,CLR,,0.00,WeatherDisplay:10.37,2013-01-25 16:15:00,
2013-01-25 11:25:00,8.8,3.9,30.11,NNW,331,8.0,18.0,80,0.00,CLR,,0.00,WeatherDisplay:10.37,2013-01-25 16:25:00,
2013-01-25 11:30:00,9.2,3.7,30.11,NNW,330,7.0,15.0,78,0.00,CLR,,0.00,WeatherDisplay:10.37,2013-01-25 16:30:00,
2013-01-25 11:40:00,9.9,4.4,30.11,NW,312,3.0,18.0,78,0.00,CLR,,0.00,WeatherDisplay:10.37,2013-01-25 16:40:00,
2013-01-25 11:45:00,10.3,4.5,30.11,NNW,327,3.0,14.0,77,0.00,CLR,,0.00,WeatherDisplay:10.37,2013-01-25 16:45:00,
2013-01-25 11:55:00,10.7,4.6,30.10,NNW,329,8.0,15.0,76,0.00,CLR,,0.00,WeatherDisplay:10.37,2013-01-25 16:55:00,
2013-01-25 12:00:00,10.9,4.5,30.09,NNW,347,8.0,14.0,75,0.00,CLR,,0.00,WeatherDisplay:10.37,2013-01-25 17:00:00,
2013-01-25 12:10:00,11.1,4.7,30.09,North,349,7.0,16.0,75,0.00,CLR,,0.00,WeatherDisplay:10.37,2013-01-25 17:10:00,
2013-01-25 12:15:00,11.3,4.6,30.09,North,358,5.0,15.0,74,0.00,CLR,,0.00,WeatherDisplay:10.37,2013-01-25 17:15:00,
2013-01-25 12:25:00,11.9,5.2,30.09,NW,309,2.0,10.0,74,0.00,CLR,,0.00,WeatherDisplay:10.37,2013-01-25 17:25:00,
2013-01-25 12:30:00,12.3,5.6,30.09,NW,326,3.0,12.0,74,0.00,CLR,,0.00,WeatherDisplay:10.37,2013-01-25 17:30:00,
2013-01-25 12:40:00,12.9,5.6,30.09,NNW,344,6.0,11.0,72,0.00,CLR,,0.00,WeatherDisplay:10.37,2013-01-25 17:40:00,
2013-01-25 12:45:00,13.0,5.7,30.09,NW,322,8.0,15.0,72,0.00,CLR,,0.00,WeatherDisplay:10.37,2013-01-25 17:45:00,
2013-01-25 12:55:00,13.3,5.3,30.08,NNW,336,3.0,12.0,70,0.00,CLR,,0.00,WeatherDisplay:10.37,2013-01-25 17:55:00,
2013-01-25 13:00:00,13.6,5.6,30.09,North,351,8.0,13.0,70,0.00,CLR,,0.00,WeatherDisplay:10.37,2013-01-25 18:00:00,
2013-01-25 13:10:00,14.0,5.7,30.08,WNW,301,2.0,12.0,69,0.00,CLR,,0.00,WeatherDisplay:10.37,2013-01-25 18:10:00,
2013-01-25 13:15:00,14.0,5.7,30.08,NNW,331,5.0,11.0,69,0.00,CLR,,0.00,WeatherDisplay:10.37,2013-01-25 18:15:00,
2013-01-25 13:25:00,14.4,5.7,30.07,NNW,342,5.0,9.0,68,0.00,CLR,,0.00,WeatherDisplay:10.37,2013-01-25 18:25:00,
2013-01-25 13:30:00,14.5,5.2,30.07,NNE,15,6.0,11.0,66,0.00,CLR,,0.00,WeatherDisplay:10.37,2013-01-25 18:30:00,
2013-01-25 13:40:00,14.7,5.7,30.07,North,351,2.0,9.0,67,0.00,CLR,,0.00,WeatherDisplay:10.37,2013-01-25 18:40:00,
2013-01-25 13:45:00,15.0,5.7,30.07,NNW,333,5.0,10.0,66,0.00,CLR,,0.00,WeatherDisplay:10.37,2013-01-25 18:45:00,
2013-01-25 13:55:00,15.2,5.2,30.06,North,349,8.0,15.0,64,0.00,CLR,,0.00,WeatherDisplay:10.37,2013-01-25 18:55:00,
2013-01-25 14:00:00,15.2,4.5,30.07,North,356,8.0,15.0,62,0.00,CLR,,0.00,WeatherDisplay:10.37,2013-01-25 19:00:00,
2013-01-25 14:10:00,15.5,4.8,30.07,NNW,345,5.0,12.0,62,0.00,CLR,,0.00,WeatherDisplay:10.37,2013-01-25 19:10:00,
2013-01-25 14:15:00,15.6,4.9,30.06,NNW,339,7.0,12.0,62,0.00,CLR,,0.00,WeatherDisplay:10.37,2013-01-25 19:15:00,
2013-01-25 14:25:00,15.5,4.4,30.06,NNW,332,2.0,9.0,61,0.00,CLR,,0.00,WeatherDisplay:10.37,2013-01-25 19:25:00,
2013-01-25 14:30:00,15.6,4.5,30.06,NNW,346,0.0,8.0,61,0.00,CLR,,0.00,WeatherDisplay:10.37,2013-01-25 19:30:00,
2013-01-25 14:40:00,15.6,4.2,30.06,NNW,338,1.0,9.0,60,0.00,CLR,,0.00,WeatherDisplay:10.37,2013-01-25 19:40:00,
2013-01-25 14:45:00,15.6,4.5,30.06,NW,326,0.0,8.0,61,0.00,CLR,,0.00,WeatherDisplay:10.37,2013-01-25 19:45:00,
2013-01-25 14:55:00,15.5,4.1,30.06,NNW,348,5.0,10.0,60,0.00,CLR,,0.00,WeatherDisplay:10.37,2013-01-25 19:55:00,
2013-01-25 15:00:00,15.6,4.2,30.05,North,355,7.0,13.0,60,0.00,CLR,,0.00,WeatherDisplay:10.37,2013-01-25 20:00:00,
2013-01-25 15:10:00,15.7,4.2,30.05,NNW,342,0.0,12.0,60,0.00,CLR,,0.00,WeatherDisplay:10.37,2013-01-25 20:10:00,
2013-01-25 15:15:00,15.7,3.9,30.05,North,359,2.0,15.0,59,0.00,CLR,,0.00,WeatherDisplay:10.37,2013-01-25 20:15:00,
2013-01-25 15:25:00,15.6,3.8,30.05,North,357,7.0,13.0,59,0.00,CLR,,0.00,WeatherDisplay:10.37,2013-01-25 20:25:00,
2013-01-25 15:30:00,15.4,4.0,30.05,North,359,3.0,14.0,60,0.00,CLR,,0.00,WeatherDisplay:10.37,2013-01-25 20:30:00,
2013-01-25 15:40:00,15.0,4.0,30.05,NNW,342,2.0,13.0,61,0.00,CLR,,0.00,WeatherDisplay:10.37,2013-01-25 20:40:00,
2013-01-25 15:45:00,14.9,3.5,30.04,NNW,348,2.0,13.0,60,0.00,CLR,,0.00,WeatherDisplay:10.37,2013-01-25 20:45:00,
2013-01-25 15:55:00,14.8,3.8,30.05,North,351,0.0,13.0,61,0.00,CLR,,0.00,WeatherDisplay:10.37,2013-01-25 20:55:00,
2013-01-25 16:00:00,14.8,3.8,30.05,NNW,342,0.0,9.0,61,0.00,CLR,,0.00,WeatherDisplay:10.37,2013-01-25 21:00:00,
2013-01-25 16:10:00,14.6,3.9,30.05,NNW,338,2.0,12.0,62,0.00,CLR,,0.00,WeatherDisplay:10.37,2013-01-25 21:10:00,
2013-01-25 16:15:00,14.5,3.5,30.05,NNW,342,6.0,12.0,61,0.00,CLR,,0.00,WeatherDisplay:10.37,2013-01-25 21:15:00,
2013-01-25 16:25:00,14.4,3.7,30.05,NNE,12,3.0,8.0,62,0.00,CLR,,0.00,WeatherDisplay:10.37,2013-01-25 21:25:00,
2013-01-25 16:30:00,14.3,3.6,30.04,North,0,2.0,12.0,62,0.00,CLR,,0.00,WeatherDisplay:10.37,2013-01-25 21:30:00,
2013-01-25 16:40:00,14.2,4.2,30.05,North,350,0.0,12.0,64,0.00,CLR,,0.00,WeatherDisplay:10.37,2013-01-25 21:40:00,
2013-01-25 16:45:00,14.2,4.2,30.05,NNW,348,1.0,8.0,64,0.00,CLR,,0.00,WeatherDisplay:10.37,2013-01-25 21:45:00,
2013-01-25 16:55:00,14.2,4.2,30.04,North,359,2.0,10.0,64,0.00,CLR,,0.00,WeatherDisplay:10.37,2013-01-25 21:55:00,
2013-01-25 17:00:00,14.1,4.1,30.04,North,359,1.0,10.0,64,0.00,CLR,,0.00,WeatherDisplay:10.37,2013-01-25 22:00:00,
2013-01-25 17:10:00,13.9,4.3,30.05,NNW,347,1.0,13.0,65,0.00,CLR,,0.00,WeatherDisplay:10.37,2013-01-25 22:10:00,
2013-01-25 17:15:00,13.9,4.3,30.05,NNW,338,2.0,10.0,65,0.00,CLR,,0.00,WeatherDisplay:10.37,2013-01-25 22:15:00,
2013-01-25 17:25:00,13.9,4.6,30.05,NNW,337,0.0,10.0,66,0.00,CLR,,0.00,WeatherDisplay:10.37,2013-01-25 22:25:00,
2013-01-25 17:30:00,13.9,4.2,30.05,NNW,344,2.0,9.0,65,0.00,CLR,,0.00,WeatherDisplay:10.37,2013-01-25 22:30:00,
2013-01-25 17:40:00,13.7,4.8,30.04,NNW,345,1.0,13.0,67,0.00,CLR,,0.00,WeatherDisplay:10.37,2013-01-25 22:40:00,
2013-01-25 17:45:00,13.6,4.3,30.04,North,1,5.0,14.0,66,0.00,CLR,,0.00,WeatherDisplay:10.37,2013-01-25 22:45:00,
2013-01-25 17:55:00,13.4,4.8,30.03,NNW,327,5.0,12.0,68,0.00,CLR,,0.00,WeatherDisplay:10.37,2013-01-25 22:55:00,
2013-01-25 18:00:00,13.3,5.0,30.03,NW,315,0.0,8.0,69,0.00,CLR,,0.00,WeatherDisplay:10.37,2013-01-25 23:00:00,
2013-01-25 18:10:00,13.4,4.8,30.03,NW,324,0.0,6.0,68,0.00,CLR,,0.00,WeatherDisplay:10.37,2013-01-25 23:10:00,
2013-01-25 18:15:00,13.4,5.4,30.03,NNW,334,0.0,0.0,70,0.00,CLR,,0.00,WeatherDisplay:10.37,2013-01-25 23:15:00,
2013-01-25 18:25:00,13.3,5.0,30.03,NW,326,0.0,5.0,69,0.00,CLR,,0.00,WeatherDisplay:10.37,2013-01-25 23:25:00,
2013-01-25 18:30:00,13.3,5.3,30.03,NNW,345,0.0,5.0,70,0.00,CLR,,0.00,WeatherDisplay:10.37,2013-01-25 23:30:00,
2013-01-25 18:40:00,13.2,5.3,30.02,North,11,0.0,0.0,70,0.00,CLR,,0.00,WeatherDisplay:10.37,2013-01-25 23:40:00,
2013-01-25 18:45:00,13.2,5.3,30.01,North,11,0.0,0.0,70,0.00,CLR,,0.00,WeatherDisplay:10.37,2013-01-25 23:45:00,
2013-01-25 18:55:00,13.2,4.6,30.01,North,359,3.0,8.0,68,0.00,CLR,,0.00,WeatherDisplay:10.37,2013-01-25 23:55:00,
2013-01-25 19:00:00,13.2,4.3,30.01,NW,323,0.0,0.0,67,0.00,CLR,,0.00,WeatherDisplay:10.37,2013-01-26 00:00:00,
2013-01-25 19:10:00,13.3,4.3,30.00,NNW,333,0.0,8.0,67,0.00,CLR,,0.00,WeatherDisplay:10.37,2013-01-26 00:10:00,
2013-01-25 19:15:00,13.2,5.0,30.00,NNW,333,3.0,11.0,69,0.00,CLR,,0.00,WeatherDisplay:10.37,2013-01-26 00:15:00,
2013-01-25 19:25:00,13.3,3.8,29.99,NNE,14,1.0,10.0,65,0.00,CLR,,0.00,WeatherDisplay:10.37,2013-01-26 00:25:00,
2013-01-25 19:30:00,13.4,3.5,29.99,NNE,31,0.0,0.0,64,0.00,CLR,,0.00,WeatherDisplay:10.37,2013-01-26 00:30:00,
2013-01-25 19:40:00,13.5,3.9,29.98,NNW,340,0.0,0.0,65,0.00,CLR,,0.00,WeatherDisplay:10.37,2013-01-26 00:40:00,
2013-01-25 19:45:00,13.5,3.6,29.98,NNW,327,0.0,6.0,64,0.00,CLR,,0.00,WeatherDisplay:10.37,2013-01-26 00:45:00,
2013-01-25 19:55:00,13.5,3.6,29.99,NW,304,0.0,0.0,64,0.00,CLR,,0.00,WeatherDisplay:10.37,2013-01-26 00:55:00,
2013-01-25 20:00:00,13.6,4.0,29.99,NW,309,0.0,0.0,65,0.00,CLR,,0.00,WeatherDisplay:10.37,2013-01-26 01:00:00,
2013-01-25 20:10:00,13.5,3.2,29.99,NNW,347,2.0,10.0,63,0.00,CLR,,0.00,WeatherDisplay:10.37,2013-01-26 01:10:00,
2013-01-25 20:15:00,13.5,3.6,29.99,North,351,0.0,0.0,64,0.00,CLR,,0.00,WeatherDisplay:10.37,2013-01-26 01:15:00,
2013-01-25 20:25:00,13.4,3.5,29.98,North,9,0.0,7.0,64,0.00,CLR,,0.00,WeatherDisplay:10.37,2013-01-26 01:25:00,
2013-01-25 20:30:00,13.4,3.8,29.99,NNE,14,1.0,6.0,65,0.00,CLR,,0.00,WeatherDisplay:10.37,2013-01-26 01:30:00,
2013-01-25 20:40:00,13.4,4.1,29.99,North,359,0.0,8.0,66,0.00,CLR,,0.00,WeatherDisplay:10.37,2013-01-26 01:40:00,
2013-01-25 20:45:00,13.3,4.1,29.99,North,4,0.0,0.0,66,0.00,CLR,,0.00,WeatherDisplay:10.37,2013-01-26 01:45:00,
2013-01-25 20:55:00,13.4,4.5,29.99,North,4,0.0,7.0,67,0.00,CLR,,0.00,WeatherDisplay:10.37,2013-01-26 01:55:00,
2013-01-25 21:00:00,13.5,4.9,29.99,North,6,0.0,0.0,68,0.00,CLR,,0.00,WeatherDisplay:10.37,2013-01-26 02:00:00,
2013-01-25 21:10:00,13.5,4.9,29.99,NNW,328,0.0,0.0,68,0.00,CLR,,0.00,WeatherDisplay:10.37,2013-01-26 02:10:00,
2013-01-25 21:15:00,13.4,4.8,30.00,NW,306,0.0,0.0,68,0.00,CLR,,0.00,WeatherDisplay:10.37,2013-01-26 02:15:00,
2013-01-25 21:25:00,13.3,4.3,30.00,NNW,330,1.0,8.0,67,0.00,CLR,,0.00,WeatherDisplay:10.37,2013-01-26 02:25:00,
2013-01-25 21:30:00,13.2,4.6,30.00,North,360,0.0,5.0,68,0.00,CLR,,0.00,WeatherDisplay:10.37,2013-01-26 02:30:00,
2013-01-25 21:40:00,13.2,4.6,29.99,NNE,17,0.0,0.0,68,0.00,CLR,,0.00,WeatherDisplay:10.37,2013-01-26 02:40:00,
2013-01-25 21:45:00,13.1,4.2,29.99,North,2,2.0,10.0,67,0.00,CLR,,0.00,WeatherDisplay:10.37,2013-01-26 02:45:00,
2013-01-25 21:55:00,13.1,4.5,29.99,NNE,23,0.0,7.0,68,0.00,CLR,,0.00,WeatherDisplay:10.37,2013-01-26 02:55:00,
2013-01-25 22:00:00,13.0,4.4,29.99,NNE,15,0.0,0.0,68,0.00,CLR,,0.00,WeatherDisplay:10.37,2013-01-26 03:00:00,
2013-01-25 22:10:00,13.0,4.4,29.98,North,4,0.0,6.0,68,0.00,CLR,,0.00,WeatherDisplay:10.37,2013-01-26 03:10:00,
2013-01-25 22:15:00,13.0,4.7,29.98,NNW,345,0.0,0.0,69,0.00,CLR,,0.00,WeatherDisplay:10.37,2013-01-26 03:15:00,
2013-01-25 22:25:00,13.0,4.7,29.98,NNW,343,0.0,0.0,69,0.00,CLR,,0.00,WeatherDisplay:10.37,2013-01-26 03:25:00,
2013-01-25 22:30:00,13.0,5.1,29.97,NNW,343,0.0,0.0,70,0.00,CLR,,0.00,WeatherDisplay:10.37,2013-01-26 03:30:00,
2013-01-25 22:40:00,13.0,4.7,29.97,NNW,329,0.0,0.0,69,0.00,CLR,,0.00,WeatherDisplay:10.37,2013-01-26 03:40:00,
2013-01-25 22:45:00,12.9,4.7,29.96,NNW,330,1.0,7.0,69,0.00,CLR,,0.00,WeatherDisplay:10.37,2013-01-26 03:45:00,
2013-01-25 22:55:00,12.9,4.6,29.96,NNW,339,0.0,0.0,69,0.00,CLR,,0.00,WeatherDisplay:10.37,2013-01-26 03:55:00,
2013-01-25 23:00:00,12.9,4.7,29.96,NNW,339,0.0,0.0,69,0.00,CLR,,0.00,WeatherDisplay:10.37,2013-01-26 04:00:00,
2013-01-25 23:10:00,13.0,4.7,29.95,NNW,345,0.0,6.0,69,0.00,CLR,,0.00,WeatherDisplay:10.37,2013-01-26 04:10:00,
2013-01-25 23:15:00,13.1,4.8,29.96,North,359,0.0,0.0,69,0.00,CLR,,0.00,WeatherDisplay:10.37,2013-01-26 04:15:00,
2013-01-25 23:25:00,13.0,4.7,29.95,North,6,0.0,0.0,69,0.00,CLR,,0.00,WeatherDisplay:10.37,2013-01-26 04:25:00,
2013-01-25 23:30:00,12.9,4.7,29.95,North,6,0.0,0.0,69,0.00,CLR,,0.00,WeatherDisplay:10.37,2013-01-26 04:30:00,
2013-01-25 23:40:00,12.9,4.6,29.95,North,6,0.0,0.0,69,0.00,CLR,,0.00,WeatherDisplay:10.37,2013-01-26 04:40:00,
2013-01-25 23:45:00,12.9,4.6,29.95,North,2,0.0,3.0,69,0.00,CLR,,0.00,WeatherDisplay:10.37,2013-01-26 04:45:00,
2013-01-25 23:55:00,12.8,4.2,29.95,NNW,346,1.0,6.0,68,0.00,CLR,,0.00,WeatherDisplay:10.37,2013-01-26 04:55:00,